Time;durP1;ratioP1;P1;durP2;ratioP2;P2;SDS_P1;SDS_P2;PMS_P1;PMS_P2;Temp;Humidity;BMP_temperature;BMP_pressure;BME280_temperature;BME280_humidity;BME280_pressure;Samples;Min_cycle;Max_cycle;Signal;HPM_P1;HPM_P2
2021/12/31 00:01:40;;;;;;;5.30;3.45;;;12.70;99.90;;;;;;5006037;28;20186;-82
2021/12/31 00:04:05;;;;;;;3.70;3.35;;;12.70;99.90;;;;;;5004712;28;20199;-80
2021/12/31 00:06:31;;;;;;;4.45;3.30;;;12.70;99.90;;;;;;5012651;28;20330;-81
2021/12/31 00:08:57;;;;;;;4.10;3.70;;;12.70;99.90;;;;;;5005102;28;20176;-80
2021/12/31 00:11:23;;;;;;;3.75;3.38;;;12.70;99.90;;;;;;5014624;28;20736;-81
2021/12/31 00:13:49;;;;;;;4.68;3.55;;;12.70;99.90;;;;;;4998536;28;20223;-80
2021/12/31 00:16:15;;;;;;;3.85;3.53;;;12.70;99.90;;;;;;4997145;28;20267;-80
2021/12/31 00:18:40;;;;;;;4.25;3.78;;;12.60;99.90;;;;;;4996616;28;20577;-83
2021/12/31 00:21:06;;;;;;;4.15;3.67;;;12.70;99.90;;;;;;5001293;28;20179;-80
2021/12/31 00:23:32;;;;;;;5.47;4.38;;;12.70;99.90;;;;;;5016894;28;20207;-80
2021/12/31 00:25:58;;;;;;;3.80;3.40;;;12.80;99.90;;;;;;5002565;28;20282;-80
2021/12/31 00:28:23;;;;;;;4.60;3.97;;;12.70;99.90;;;;;;5008327;28;20194;-80
2021/12/31 00:30:53;;;;;;;5.15;4.22;;;12.70;99.90;;;;;;5001293;28;20207;-80
2021/12/31 00:33:23;;;;;;;5.13;4.25;;;12.70;99.90;;;;;;5009470;28;20204;-80
2021/12/31 00:35:49;;;;;;;4.93;4.30;;;12.60;99.90;;;;;;5008166;28;20195;-80
2021/12/31 00:38:15;;;;;;;5.88;4.57;;;12.70;99.90;;;;;;5008390;28;20184;-80
2021/12/31 00:40:41;;;;;;;5.03;4.20;;;12.80;99.90;;;;;;5009537;28;20672;-81
2021/12/31 00:43:06;;;;;;;4.55;4.15;;;12.80;99.90;;;;;;5000041;28;20195;-82
2021/12/31 00:45:36;;;;;;;4.53;4.10;;;12.70;99.90;;;;;;5017673;28;20599;-80
2021/12/31 00:48:03;;;;;;;4.45;4.05;;;12.70;99.90;;;;;;5009760;28;20175;-80
2021/12/31 00:50:29;;;;;;;4.13;3.72;;;12.80;99.90;;;;;;5000455;28;20247;-81
2021/12/31 00:52:54;;;;;;;4.18;3.78;;;12.80;99.90;;;;;;5009047;28;20721;-81
2021/12/31 00:55:20;;;;;;;4.28;3.88;;;12.70;99.90;;;;;;5009588;28;20286;-80
2021/12/31 00:57:47;;;;;;;4.65;3.30;;;12.80;99.90;;;;;;4999118;28;20555;-81
2021/12/31 01:00:15;;;;;;;4.10;3.70;;;12.80;99.90;;;;;;5016848;28;20552;-80
2021/12/31 01:02:43;;;;;;;4.90;3.92;;;12.70;99.90;;;;;;5008573;28;20184;-80
2021/12/31 01:05:10;;;;;;;4.65;4.15;;;12.70;99.90;;;;;;5017612;28;20211;-81
2021/12/31 01:07:35;;;;;;;4.20;3.80;;;12.70;99.90;;;;;;4997785;28;20191;-80
2021/12/31 01:10:02;;;;;;;4.65;4.25;;;12.70;99.90;;;;;;4999278;28;20263;-80
2021/12/31 01:12:28;;;;;;;4.20;3.80;;;12.70;99.90;;;;;;5007975;28;20192;-80
2021/12/31 01:14:58;;;;;;;4.40;4.00;;;12.70;99.90;;;;;;5015598;28;21056;-80
2021/12/31 01:18:04;;;;;;;4.38;3.97;;;12.70;99.90;;;;;;5007005;28;20245;-81
2021/12/31 01:20:12;;;;;;;5.90;3.90;;;12.70;99.90;;;;;;5008142;28;20197;-80
2021/12/31 01:22:38;;;;;;;4.07;3.67;;;12.70;99.90;;;;;;5009489;28;20715;-81
2021/12/31 01:25:06;;;;;;;3.90;3.55;;;12.70;99.90;;;;;;5008909;28;20292;-81
2021/12/31 01:27:32;;;;;;;4.40;4.00;;;12.60;99.90;;;;;;5009318;28;20186;-80
2021/12/31 01:29:58;;;;;;;5.20;3.47;;;12.60;99.90;;;;;;5006785;28;20604;-80
2021/12/31 01:32:24;;;;;;;4.28;3.88;;;12.60;99.90;;;;;;5007723;28;20302;-80
2021/12/31 01:34:50;;;;;;;4.35;3.95;;;12.60;99.90;;;;;;4999542;28;20330;-80
2021/12/31 01:37:16;;;;;;;4.55;3.70;;;12.60;99.90;;;;;;5000142;28;20198;-81
2021/12/31 01:39:42;;;;;;;4.40;4.00;;;12.60;99.90;;;;;;4998884;28;20191;-80
2021/12/31 01:42:13;;;;;;;4.38;3.97;;;12.60;99.90;;;;;;5006862;28;20186;-80
2021/12/31 01:44:42;;;;;;;4.40;3.97;;;12.50;99.90;;;;;;5006572;28;20203;-80
2021/12/31 01:47:12;;;;;;;4.40;4.00;;;12.60;99.90;;;;;;5008085;28;20298;-81
2021/12/31 01:49:41;;;;;;;4.07;3.67;;;12.60;99.90;;;;;;5006282;28;21043;-81
2021/12/31 01:52:11;;;;;;;4.85;4.18;;;12.70;99.90;;;;;;5007790;28;20313;-81
2021/12/31 01:54:38;;;;;;;4.57;4.18;;;12.70;99.90;;;;;;5008184;28;20302;-81
2021/12/31 01:57:07;;;;;;;4.45;4.05;;;12.60;99.90;;;;;;5007052;28;20180;-80
2021/12/31 01:59:36;;;;;;;4.43;4.03;;;12.70;99.90;;;;;;5015343;28;20202;-80
2021/12/31 02:02:07;;;;;;;4.22;3.85;;;12.60;99.90;;;;;;5007299;28;20187;-81
2021/12/31 02:04:36;;;;;;;4.88;4.35;;;12.60;99.90;;;;;;5013768;28;20211;-80
2021/12/31 02:07:01;;;;;;;5.22;4.72;;;12.60;99.90;;;;;;5005719;28;20233;-81
2021/12/31 02:09:30;;;;;;;6.07;4.40;;;12.50;99.90;;;;;;5007581;28;20278;-81
2021/12/31 02:11:55;;;;;;;5.63;4.22;;;12.50;99.90;;;;;;4998925;28;20187;-80
2021/12/31 02:14:24;;;;;;;4.70;3.97;;;12.50;99.90;;;;;;5008067;28;20262;-81
2021/12/31 02:16:50;;;;;;;4.95;4.45;;;12.40;99.90;;;;;;5006123;28;20192;-81
2021/12/31 02:19:25;;;;;;;5.70;4.13;;;12.40;99.90;;;;;;5007796;28;20191;-80
2021/12/31 02:21:51;;;;;;;4.25;3.85;;;12.40;99.90;;;;;;4997458;28;20665;-80
2021/12/31 02:24:18;;;;;;;4.72;4.25;;;12.40;99.90;;;;;;5007677;28;20218;-81
2021/12/31 02:26:44;;;;;;;4.18;3.38;;;12.40;99.90;;;;;;4998861;28;20561;-80
2021/12/31 02:29:19;;;;;;;5.88;4.13;;;12.50;99.90;;;;;;5015071;28;20202;-80
2021/12/31 02:31:45;;;;;;;3.97;3.67;;;12.50;99.90;;;;;;5005908;28;20700;-80
2021/12/31 02:34:11;;;;;;;3.90;3.60;;;12.50;99.90;;;;;;5006293;28;20215;-80
2021/12/31 02:36:36;;;;;;;3.65;3.35;;;12.40;99.90;;;;;;5006438;28;20190;-80
2021/12/31 02:39:03;;;;;;;4.10;3.70;;;12.40;99.90;;;;;;4998582;28;20187;-80
2021/12/31 02:41:29;;;;;;;3.90;3.60;;;12.40;99.90;;;;;;5006525;28;20188;-79
2021/12/31 02:43:55;;;;;;;4.70;3.95;;;12.30;99.90;;;;;;5006917;28;20424;-81
2021/12/31 02:46:20;;;;;;;3.88;3.47;;;12.30;99.90;;;;;;4999163;28;20787;-82
2021/12/31 02:48:55;;;;;;;4.47;3.70;;;12.40;99.90;;;;;;4999491;28;20277;-82
2021/12/31 02:51:21;;;;;;;4.75;4.32;;;12.20;99.90;;;;;;5006018;28;20183;-82
2021/12/31 02:53:54;;;;;;;4.03;3.72;;;12.30;99.90;;;;;;5006992;28;20279;-82
2021/12/31 02:56:20;;;;;;;4.13;3.83;;;12.30;99.90;;;;;;5006788;28;20224;-81
2021/12/31 02:58:46;;;;;;;3.33;3.13;;;12.30;99.90;;;;;;5016061;28;20183;-81
2021/12/31 03:01:15;;;;;;;4.50;4.10;;;12.40;99.90;;;;;;4998268;28;20187;-80
2021/12/31 03:03:41;;;;;;;3.67;3.25;;;12.40;99.90;;;;;;5000151;28;20211;-79
2021/12/31 03:06:09;;;;;;;3.80;3.50;;;12.40;99.90;;;;;;5008166;28;20191;-82
2021/12/31 03:08:38;;;;;;;3.28;3.08;;;12.40;99.90;;;;;;5007144;28;20203;-81
2021/12/31 03:11:07;;;;;;;3.25;2.95;;;12.40;99.90;;;;;;5016999;28;20684;-80
2021/12/31 03:13:35;;;;;;;2.95;2.75;;;12.50;99.90;;;;;;4999746;28;20223;-81
2021/12/31 03:16:02;;;;;;;3.35;3.05;;;12.50;99.90;;;;;;5005758;28;20706;-81
2021/12/31 03:18:28;;;;;;;3.25;3.05;;;12.50;99.90;;;;;;5000210;28;20658;-82
2021/12/31 03:20:57;;;;;;;2.83;2.63;;;12.50;99.90;;;;;;5005950;28;20179;-79
2021/12/31 03:23:28;;;;;;;3.22;2.63;;;12.50;99.90;;;;;;4998016;28;20188;-80
2021/12/31 03:25:54;;;;;;;2.50;2.30;;;12.50;99.90;;;;;;5006582;28;20276;-82
2021/12/31 03:28:20;;;;;;;2.58;2.38;;;12.50;99.90;;;;;;5006585;28;20274;-81
2021/12/31 03:30:46;;;;;;;2.20;2.08;;;12.50;99.90;;;;;;5007166;28;20214;-82
2021/12/31 03:33:12;;;;;;;2.63;2.42;;;12.50;99.90;;;;;;5007424;28;20358;-80
2021/12/31 03:35:38;;;;;;;2.50;2.30;;;12.50;99.90;;;;;;5000621;28;20278;-81
2021/12/31 03:38:03;;;;;;;2.10;1.90;;;12.50;99.90;;;;;;5006068;28;20928;-81
2021/12/31 03:40:29;;;;;;;2.20;2.00;;;12.50;99.90;;;;;;5006332;28;20243;-82
2021/12/31 03:42:55;;;;;;;2.45;2.25;;;12.40;99.90;;;;;;5007863;28;20183;-80
2021/12/31 03:45:20;;;;;;;2.45;2.13;;;12.40;99.90;;;;;;5015929;28;20865;-82
2021/12/31 03:47:46;;;;;;;2.13;2.03;;;12.40;99.90;;;;;;5006787;28;20195;-82
2021/12/31 03:50:11;;;;;;;2.33;2.13;;;12.30;99.90;;;;;;4997681;28;20592;-81
2021/12/31 03:52:39;;;;;;;2.22;2.03;;;12.30;99.90;;;;;;5012493;28;20226;-80
2021/12/31 03:55:09;;;;;;;2.53;2.03;;;12.40;99.90;;;;;;4998629;28;20207;-79
2021/12/31 03:57:35;;;;;;;2.72;2.22;;;12.40;99.90;;;;;;5002245;28;20215;-80
2021/12/31 04:00:04;;;;;;;2.30;2.10;;;12.30;99.90;;;;;;5017029;28;20575;-83
2021/12/31 04:02:30;;;;;;;3.13;2.03;;;12.30;99.90;;;;;;5008094;28;20200;-81
2021/12/31 04:04:56;;;;;;;2.45;1.75;;;12.30;99.90;;;;;;5009630;28;20261;-81
2021/12/31 04:07:21;;;;;;;2.20;2.00;;;12.30;99.90;;;;;;5009927;28;20187;-82
2021/12/31 04:09:47;;;;;;;3.08;1.95;;;12.30;99.90;;;;;;5012206;28;20595;-79
2021/12/31 04:12:13;;;;;;;2.40;2.20;;;12.20;99.90;;;;;;5002819;28;20253;-81
2021/12/31 04:14:38;;;;;;;4.15;2.33;;;12.20;99.90;;;;;;5010733;28;20226;-79
2021/12/31 04:17:04;;;;;;;3.75;2.45;;;12.20;99.90;;;;;;5010363;28;20262;-81
2021/12/31 04:19:30;;;;;;;2.17;2.00;;;12.20;99.90;;;;;;5011237;28;20784;-81
2021/12/31 04:21:56;;;;;;;2.20;2.10;;;12.20;99.90;;;;;;5008154;28;20230;-81
2021/12/31 04:27:06;;;;;;;2.80;1.90;;;12.30;99.90;;;;;;5010689;28;20183;-81
2021/12/31 04:29:31;;;;;;;2.70;2.22;;;12.30;99.90;;;;;;5001762;28;20191;-80
2021/12/31 04:31:57;;;;;;;3.50;2.00;;;12.30;99.90;;;;;;5008903;28;20650;-80
2021/12/31 04:34:22;;;;;;;3.17;1.80;;;12.30;99.90;;;;;;5001454;28;20302;-81
2021/12/31 04:36:48;;;;;;;3.00;2.30;;;12.30;99.90;;;;;;5002447;28;20294;-81
2021/12/31 04:39:14;;;;;;;3.65;2.28;;;12.30;99.90;;;;;;5003029;28;20191;-81
2021/12/31 04:41:39;;;;;;;2.70;2.50;;;12.20;99.90;;;;;;5007226;28;20203;-80
2021/12/31 04:44:05;;;;;;;2.30;2.13;;;12.20;99.90;;;;;;5007846;28;20684;-80
2021/12/31 04:46:30;;;;;;;3.00;2.33;;;12.20;99.90;;;;;;5008504;28;20179;-81
2021/12/31 04:48:56;;;;;;;4.88;2.40;;;12.20;99.90;;;;;;5007633;28;20194;-82
2021/12/31 04:51:21;;;;;;;2.50;2.20;;;12.20;99.90;;;;;;5007938;28;20184;-82
2021/12/31 04:53:47;;;;;;;2.50;2.30;;;12.30;99.90;;;;;;5008597;28;20265;-79
2021/12/31 04:56:13;;;;;;;4.50;2.33;;;12.30;99.90;;;;;;5001997;28;20263;-80
2021/12/31 04:58:38;;;;;;;2.50;2.30;;;12.30;99.90;;;;;;5012242;28;20265;-81
2021/12/31 05:01:04;;;;;;;3.80;2.38;;;12.30;99.90;;;;;;5002430;28;20238;-81
2021/12/31 05:03:29;;;;;;;2.83;2.63;;;12.20;99.90;;;;;;5010451;28;20298;-80
2021/12/31 05:05:55;;;;;;;3.97;2.50;;;12.30;99.90;;;;;;5011430;28;20204;-81
2021/12/31 05:08:20;;;;;;;2.70;2.50;;;12.30;99.90;;;;;;5010204;28;20199;-82
2021/12/31 05:10:46;;;;;;;3.30;2.35;;;12.30;99.90;;;;;;5002458;28;20234;-80
2021/12/31 05:13:15;;;;;;;3.13;2.50;;;12.20;99.90;;;;;;5011142;28;20627;-79
2021/12/31 05:15:45;;;;;;;3.38;2.90;;;12.20;99.90;;;;;;5011288;28;20186;-82
2021/12/31 05:18:12;;;;;;;2.70;2.50;;;12.30;99.90;;;;;;5010475;28;20180;-80
2021/12/31 05:20:38;;;;;;;2.92;2.72;;;12.30;99.90;;;;;;5011316;28;20215;-81
2021/12/31 05:23:03;;;;;;;2.83;2.63;;;12.30;99.90;;;;;;5002276;28;20211;-79
2021/12/31 05:25:29;;;;;;;3.25;2.92;;;12.20;99.90;;;;;;5018547;28;20210;-81
2021/12/31 05:27:55;;;;;;;3.30;2.70;;;12.30;99.90;;;;;;5009656;28;20180;-81
2021/12/31 05:30:21;;;;;;;4.85;3.10;;;12.20;99.90;;;;;;5009480;28;20268;-81
2021/12/31 05:32:47;;;;;;;3.30;3.00;;;12.20;99.90;;;;;;5011061;28;20577;-82
2021/12/31 05:35:13;;;;;;;6.40;2.85;;;12.20;99.90;;;;;;5008962;28;20231;-81
2021/12/31 05:37:39;;;;;;;2.67;2.30;;;12.20;99.90;;;;;;5009778;28;20191;-81
2021/12/31 05:40:05;;;;;;;2.75;2.55;;;12.30;99.90;;;;;;5009532;28;20194;-80
2021/12/31 05:42:31;;;;;;;2.88;2.38;;;12.30;99.90;;;;;;5010651;28;20198;-81
2021/12/31 05:44:57;;;;;;;2.60;2.40;;;12.50;99.90;;;;;;5007472;28;20673;-80
2021/12/31 05:47:23;;;;;;;3.17;2.42;;;12.50;99.90;;;;;;5006413;28;20183;-80
2021/12/31 05:49:49;;;;;;;2.20;2.00;;;12.50;99.90;;;;;;4995502;28;20234;-79
2021/12/31 05:52:15;;;;;;;2.40;2.20;;;12.60;99.90;;;;;;5005789;28;20215;-79
2021/12/31 05:54:41;;;;;;;2.13;1.70;;;12.60;99.90;;;;;;5007931;28;20246;-80
2021/12/31 05:57:06;;;;;;;2.55;1.98;;;12.60;99.90;;;;;;5005768;28;20434;-80
2021/12/31 05:59:32;;;;;;;2.80;1.80;;;12.60;99.90;;;;;;5000268;28;20645;-81
2021/12/31 06:01:58;;;;;;;3.42;1.90;;;12.60;99.90;;;;;;5008532;28;20180;-80
2021/12/31 06:04:24;;;;;;;2.30;1.90;;;12.60;99.90;;;;;;5003436;28;20238;-81
2021/12/31 06:06:50;;;;;;;1.98;1.83;;;12.60;99.90;;;;;;5010037;28;20238;-81
2021/12/31 06:09:15;;;;;;;2.22;1.90;;;12.60;99.90;;;;;;5010399;28;20188;-81
2021/12/31 06:11:41;;;;;;;3.45;2.00;;;12.60;99.90;;;;;;5008520;28;20186;-80
2021/12/31 06:14:09;;;;;;;3.78;2.10;;;12.60;99.90;;;;;;5000788;28;20226;-82
2021/12/31 06:16:40;;;;;;;2.25;1.85;;;12.60;99.90;;;;;;5009222;28;20194;-83
2021/12/31 06:19:07;;;;;;;1.60;1.50;;;12.50;99.90;;;;;;5008534;28;20685;-81
2021/12/31 06:21:35;;;;;;;1.75;1.55;;;12.60;99.90;;;;;;5008406;28;20791;-81
2021/12/31 06:24:01;;;;;;;2.33;1.60;;;12.60;99.90;;;;;;5008102;28;20235;-82
2021/12/31 06:26:27;;;;;;;2.85;1.90;;;12.60;99.90;;;;;;5008726;28;20266;-82
2021/12/31 06:28:52;;;;;;;1.98;1.75;;;12.60;99.90;;;;;;5007978;28;20278;-82
2021/12/31 06:31:18;;;;;;;3.00;1.73;;;12.40;99.90;;;;;;5007633;28;20242;-78
2021/12/31 06:33:43;;;;;;;2.08;1.42;;;12.40;99.90;;;;;;5008396;28;20358;-79
2021/12/31 06:36:09;;;;;;;2.25;1.60;;;12.40;99.90;;;;;;5009900;28;20205;-81
2021/12/31 06:38:35;;;;;;;1.50;1.20;;;12.40;99.90;;;;;;5009925;28;20182;-79
2021/12/31 06:41:01;;;;;;;1.67;1.38;;;12.50;99.90;;;;;;5008079;28;20192;-82
2021/12/31 06:43:26;;;;;;;1.08;1.02;;;12.70;99.90;;;;;;5008405;28;20696;-80
2021/12/31 06:45:52;;;;;;;1.80;1.58;;;12.60;99.90;;;;;;5001035;28;20241;-78
2021/12/31 06:48:18;;;;;;;2.97;1.20;;;12.60;99.90;;;;;;5008384;28;20187;-82
2021/12/31 06:50:43;;;;;;;2.63;1.63;;;12.70;99.90;;;;;;5007718;28;20620;-82
2021/12/31 06:53:09;;;;;;;3.83;1.48;;;12.70;99.90;;;;;;5007264;28;20203;-81
2021/12/31 06:55:35;;;;;;;3.17;1.52;;;12.60;99.90;;;;;;5008099;28;20657;-82
2021/12/31 06:58:01;;;;;;;1.48;1.13;;;12.60;99.90;;;;;;4999648;28;20180;-82
2021/12/31 07:00:26;;;;;;;2.45;1.00;;;12.70;99.90;;;;;;5000270;28;20185;-81
2021/12/31 07:03:10;;;;;;;1.02;0.93;;;12.80;99.90;;;;;;5004580;28;20269;-79
2021/12/31 07:05:36;;;;;;;2.00;1.00;;;12.80;99.90;;;;;;5003894;28;20187;-81
2021/12/31 07:08:03;;;;;;;2.22;1.00;;;12.80;99.90;;;;;;5004496;28;20379;-79
2021/12/31 07:10:29;;;;;;;1.20;1.10;;;12.80;99.90;;;;;;5004494;28;20562;-80
2021/12/31 07:12:59;;;;;;;1.73;1.05;;;12.80;99.90;;;;;;5009692;28;20218;-82
2021/12/31 07:15:25;;;;;;;1.05;0.93;;;12.70;99.90;;;;;;5002931;28;20296;-82
2021/12/31 07:17:51;;;;;;;0.73;0.73;;;12.60;99.90;;;;;;5003954;28;20253;-82
2021/12/31 07:20:17;;;;;;;1.35;0.93;;;12.70;99.90;;;;;;5003005;28;20180;-79
2021/12/31 07:22:43;;;;;;;1.10;1.00;;;12.70;99.90;;;;;;5010968;28;20179;-78
2021/12/31 07:25:08;;;;;;;0.77;0.77;;;12.70;99.90;;;;;;5003121;28;20941;-82
2021/12/31 07:27:35;;;;;;;1.25;0.77;;;12.70;99.90;;;;;;5004975;28;20645;-80
2021/12/31 07:30:01;;;;;;;1.55;0.80;;;12.70;99.90;;;;;;4994070;28;20187;-82
2021/12/31 07:32:27;;;;;;;1.00;0.88;;;12.60;99.90;;;;;;5003834;28;20865;-81
2021/12/31 07:34:52;;;;;;;2.03;1.00;;;12.60;99.90;;;;;;5003498;28;20203;-80
2021/12/31 07:37:18;;;;;;;2.13;0.93;;;12.70;99.90;;;;;;5002274;28;20206;-81
2021/12/31 07:39:47;;;;;;;1.63;1.00;;;12.70;99.90;;;;;;5000894;28;20701;-80
2021/12/31 07:42:14;;;;;;;1.70;0.82;;;12.70;99.90;;;;;;4999210;28;20175;-81
2021/12/31 07:44:40;;;;;;;1.25;0.90;;;12.60;99.90;;;;;;4999532;28;20310;-81
2021/12/31 07:47:06;;;;;;;1.58;0.85;;;12.60;99.90;;;;;;5000656;28;20654;-80
2021/12/31 07:49:31;;;;;;;1.30;0.98;;;12.50;99.90;;;;;;5006288;28;20195;-81
2021/12/31 07:51:57;;;;;;;0.77;0.77;;;12.50;99.90;;;;;;5003747;28;20187;-81
2021/12/31 07:54:23;;;;;;;1.38;0.90;;;12.50;99.90;;;;;;5002017;28;20219;-83
2021/12/31 07:56:48;;;;;;;2.17;0.93;;;12.30;99.90;;;;;;5003062;28;20209;-85
2021/12/31 07:59:14;;;;;;;1.55;0.85;;;12.20;99.90;;;;;;4997907;28;20183;-83
2021/12/31 08:01:39;;;;;;;2.72;1.42;;;12.20;99.90;;;;;;4989908;28;20245;-85
2021/12/31 08:04:05;;;;;;;1.25;0.85;;;12.20;99.90;;;;;;4992470;28;20302;-84
2021/12/31 08:06:30;;;;;;;2.20;1.00;;;12.20;99.90;;;;;;4994269;28;20241;-83
2021/12/31 08:08:56;;;;;;;1.00;0.77;;;12.10;99.90;;;;;;4992972;28;20180;-83
2021/12/31 08:11:22;;;;;;;0.68;0.65;;;12.10;99.90;;;;;;5001310;28;20266;-84
2021/12/31 08:13:48;;;;;;;1.38;0.85;;;12.10;99.90;;;;;;4988721;28;20215;-86
2021/12/31 08:16:13;;;;;;;0.95;0.70;;;12.20;99.90;;;;;;4992959;28;20277;-85
2021/12/31 08:18:39;;;;;;;1.15;0.90;;;12.30;99.90;;;;;;4999730;28;20258;-87
2021/12/31 08:21:06;;;;;;;1.40;1.00;;;12.20;99.90;;;;;;5000862;28;20603;-85
2021/12/31 08:23:32;;;;;;;2.08;0.93;;;12.40;99.90;;;;;;4994025;28;20590;-85
2021/12/31 08:25:59;;;;;;;2.75;1.00;;;12.50;99.90;;;;;;4999732;28;20253;-83
2021/12/31 08:28:25;;;;;;;1.05;0.95;;;12.60;99.90;;;;;;4999258;28;20210;-85
2021/12/31 08:30:51;;;;;;;1.92;0.90;;;12.60;99.90;;;;;;4992511;28;20301;-82
2021/12/31 08:33:16;;;;;;;1.10;0.70;;;12.50;99.90;;;;;;5001500;28;20314;-82
2021/12/31 09:24:54;;;;;;;2.05;0.80;;;13.00;99.90;;;;;;5748252;23;20239;-81
2021/12/31 09:27:20;;;;;;;0.93;0.70;;;13.00;99.90;;;;;;5024201;28;20179;-82
2021/12/31 09:29:46;;;;;;;0.95;0.85;;;13.10;99.90;;;;;;5019697;28;20202;-83
2021/12/31 09:32:11;;;;;;;1.90;0.70;;;13.00;99.90;;;;;;5019948;28;20254;-80
2021/12/31 09:34:37;;;;;;;0.70;0.70;;;12.90;99.90;;;;;;5019419;28;20215;-81
2021/12/31 09:37:03;;;;;;;2.15;1.00;;;12.90;99.90;;;;;;5012539;28;20712;-83
2021/12/31 09:39:28;;;;;;;1.88;0.95;;;12.90;99.90;;;;;;5014673;28;20214;-81
2021/12/31 09:41:54;;;;;;;2.03;0.98;;;12.90;99.90;;;;;;5018551;28;20683;-85
2021/12/31 09:44:20;;;;;;;2.38;0.88;;;12.80;99.90;;;;;;5008526;28;20199;-83
2021/12/31 09:46:46;;;;;;;0.80;0.80;;;12.80;99.90;;;;;;5009114;28;20573;-84
2021/12/31 09:49:12;;;;;;;1.33;0.75;;;12.80;99.90;;;;;;5008968;28;20286;-81
2021/12/31 09:51:42;;;;;;;0.80;0.80;;;12.80;99.90;;;;;;5008722;28;20911;-84
2021/12/31 09:54:08;;;;;;;1.23;0.80;;;12.90;99.90;;;;;;5011446;28;20286;-84
2021/12/31 09:56:39;;;;;;;1.25;0.73;;;13.10;99.90;;;;;;5008503;28;20184;-83
2021/12/31 09:59:05;;;;;;;1.65;0.70;;;13.10;99.90;;;;;;5008995;28;20198;-83
2021/12/31 10:01:31;;;;;;;0.88;0.60;;;13.30;99.90;;;;;;5011271;28;20175;-82
2021/12/31 10:03:57;;;;;;;0.95;0.80;;;13.30;99.90;;;;;;5009363;28;20703;-83
2021/12/31 10:06:24;;;;;;;1.40;0.93;;;13.30;99.90;;;;;;5009427;28;20187;-85
2021/12/31 10:08:50;;;;;;;1.00;0.90;;;13.30;99.90;;;;;;5008717;28;20191;-84
2021/12/31 10:11:23;;;;;;;0.82;0.70;;;13.30;99.90;;;;;;5008708;28;20661;-83
2021/12/31 10:14:00;;;;;;;0.95;0.73;;;13.30;99.90;;;;;;5007626;28;20266;-85
2021/12/31 10:16:35;;;;;;;1.60;1.00;;;13.30;99.90;;;;;;5007523;28;20310;-84
2021/12/31 10:19:18;;;;;;;2.33;1.15;;;13.20;99.90;;;;;;5010983;28;20179;-84
2021/12/31 10:21:49;;;;;;;0.75;0.70;;;13.10;99.90;;;;;;5010009;28;20190;-83
2021/12/31 10:24:35;;;;;;;2.38;1.02;;;13.10;99.90;;;;;;5011596;28;20266;-84
2021/12/31 10:27:02;;;;;;;1.15;0.73;;;13.10;99.90;;;;;;5011442;28;20188;-84
2021/12/31 10:29:28;;;;;;;3.78;0.90;;;13.10;99.90;;;;;;5010024;28;20183;-82
2021/12/31 10:31:54;;;;;;;1.52;1.00;;;13.00;99.90;;;;;;5012994;28;20249;-82
2021/12/31 10:34:35;;;;;;;1.10;0.90;;;13.00;99.90;;;;;;5011150;28;20207;-83
2021/12/31 10:37:14;;;;;;;1.02;0.80;;;13.00;99.90;;;;;;5012548;28;20172;-83
2021/12/31 10:39:40;;;;;;;1.38;0.80;;;13.00;99.90;;;;;;5018704;28;20180;-83
2021/12/31 10:42:11;;;;;;;2.72;0.77;;;13.00;99.90;;;;;;5011644;28;20180;-84
2021/12/31 10:44:49;;;;;;;1.00;0.90;;;13.10;99.90;;;;;;5010341;28;20206;-82
2021/12/31 10:47:15;;;;;;;1.70;0.85;;;13.10;99.90;;;;;;5011981;28;20175;-84
2021/12/31 10:50:03;;;;;;;2.10;0.95;;;13.10;99.90;;;;;;5014954;28;20191;-84
2021/12/31 10:52:40;;;;;;;0.80;0.80;;;13.10;99.90;;;;;;5011640;28;20188;-82
2021/12/31 10:55:18;;;;;;;1.33;0.82;;;13.20;99.90;;;;;;5013496;28;20195;-84
2021/12/31 10:57:47;;;;;;;1.40;0.90;;;13.10;99.90;;;;;;5012186;28;20167;-83
2021/12/31 11:00:14;;;;;;;1.50;0.80;;;13.10;99.90;;;;;;5019505;28;20271;-83
2021/12/31 11:02:40;;;;;;;1.70;1.00;;;13.10;99.90;;;;;;5009762;28;20218;-80
2021/12/31 11:05:07;;;;;;;3.40;0.90;;;13.10;99.90;;;;;;5009168;28;20269;-81
2021/12/31 11:07:34;;;;;;;1.25;0.95;;;13.00;99.90;;;;;;5009782;28;20199;-82
2021/12/31 11:10:01;;;;;;;0.95;0.80;;;13.00;99.90;;;;;;5011193;28;20176;-81
2021/12/31 11:12:27;;;;;;;1.27;0.80;;;13.10;99.90;;;;;;5010592;28;20580;-81
2021/12/31 11:14:54;;;;;;;1.35;0.70;;;13.10;99.90;;;;;;5010190;28;20703;-80
2021/12/31 11:17:20;;;;;;;3.08;0.98;;;13.10;99.90;;;;;;5026462;28;20194;-82
2021/12/31 11:19:49;;;;;;;1.33;0.95;;;13.20;99.90;;;;;;5009544;28;20208;-83
2021/12/31 11:22:16;;;;;;;5.45;3.63;;;13.20;99.90;;;;;;5009134;28;20199;-82
2021/12/31 11:24:43;;;;;;;1.50;1.30;;;13.20;99.90;;;;;;5009561;28;20203;-82
2021/12/31 11:27:34;;;;;;;1.45;1.05;;;13.20;99.90;;;;;;5008246;28;20275;-81
2021/12/31 11:30:01;;;;;;;2.05;1.00;;;13.10;99.90;;;;;;5010011;28;20545;-81
2021/12/31 11:32:47;;;;;;;1.20;1.10;;;13.10;99.90;;;;;;5008615;28;20282;-83
2021/12/31 11:35:33;;;;;;;1.52;0.90;;;13.10;99.90;;;;;;5001468;28;20277;-83
2021/12/31 11:38:00;;;;;;;1.95;0.90;;;13.20;99.90;;;;;;5009029;28;20255;-81
2021/12/31 11:40:37;;;;;;;1.10;1.00;;;13.20;99.90;;;;;;5007182;28;20316;-81
2021/12/31 11:43:24;;;;;;;1.77;0.90;;;13.10;99.90;;;;;;5006948;28;20195;-81
2021/12/31 11:46:08;;;;;;;1.08;0.98;;;13.10;99.90;;;;;;5007887;28;20265;-83
2021/12/31 11:48:47;;;;;;;1.50;0.95;;;13.10;99.90;;;;;;5006374;28;20202;-81
2021/12/31 11:51:36;;;;;;;0.90;0.90;;;13.10;99.90;;;;;;5004455;28;20194;-83
2021/12/31 11:54:06;;;;;;;0.90;0.90;;;13.20;99.90;;;;;;5005458;28;20203;-82
2021/12/31 11:56:45;;;;;;;0.70;0.70;;;13.30;99.90;;;;;;5009645;28;20798;-82
2021/12/31 11:59:11;;;;;;;1.38;0.80;;;13.30;99.90;;;;;;5000824;28;20795;-80
2021/12/31 12:01:50;;;;;;;1.45;0.80;;;13.30;99.90;;;;;;5007600;28;20190;-79
2021/12/31 12:04:20;;;;;;;1.77;0.93;;;13.30;99.90;;;;;;5001458;28;20606;-79
2021/12/31 12:07:30;;;;;;;1.85;0.75;;;13.30;99.90;;;;;;5025359;28;20233;-80
2021/12/31 12:09:55;;;;;;;0.70;0.60;;;13.40;99.90;;;;;;5011032;28;20187;-81
2021/12/31 12:12:21;;;;;;;0.85;0.70;;;13.40;99.90;;;;;;5010880;28;20195;-80
2021/12/31 12:14:48;;;;;;;3.33;1.30;;;13.50;99.90;;;;;;5010388;28;20219;-80
2021/12/31 12:17:16;;;;;;;0.68;0.68;;;13.50;99.90;;;;;;5013970;28;20183;-80
2021/12/31 12:19:51;;;;;;;1.27;0.90;;;13.50;99.90;;;;;;5016445;28;20229;-81
2021/12/31 12:22:26;;;;;;;1.92;0.70;;;13.60;99.90;;;;;;5015664;28;20729;-80
2021/12/31 12:24:52;;;;;;;1.23;1.13;;;13.60;99.90;;;;;;5014778;28;20853;-80
2021/12/31 12:27:20;;;;;;;0.80;0.80;;;13.60;99.90;;;;;;5013871;28;20255;-79
2021/12/31 12:29:47;;;;;;;0.70;0.70;;;13.70;99.90;;;;;;5013773;28;20254;-80
2021/12/31 12:32:14;;;;;;;1.00;0.90;;;13.80;99.90;;;;;;5013188;28;20274;-80
2021/12/31 12:34:39;;;;;;;1.35;0.80;;;13.80;99.90;;;;;;5009511;28;20215;-79
2021/12/31 12:37:05;;;;;;;1.52;1.27;;;13.80;99.90;;;;;;5011102;28;20325;-80
2021/12/31 12:39:30;;;;;;;1.48;0.60;;;13.80;99.90;;;;;;5009868;28;20183;-79
2021/12/31 12:41:56;;;;;;;0.70;0.70;;;13.70;99.90;;;;;;5010052;28;20614;-79
2021/12/31 12:44:22;;;;;;;0.57;0.57;;;13.70;99.90;;;;;;5009599;28;20207;-79
2021/12/31 12:46:56;;;;;;;1.52;0.77;;;13.70;99.90;;;;;;5012206;28;20180;-80
2021/12/31 12:49:23;;;;;;;0.80;0.80;;;13.70;99.90;;;;;;5009443;28;20202;-81
2021/12/31 12:51:50;;;;;;;0.63;0.60;;;13.70;99.90;;;;;;5010712;28;20187;-80
2021/12/31 12:54:23;;;;;;;0.60;0.60;;;13.60;99.90;;;;;;5011323;28;20298;-80
2021/12/31 12:56:50;;;;;;;1.10;0.80;;;13.60;99.90;;;;;;5011090;28;20250;-79
2021/12/31 12:59:20;;;;;;;2.00;0.75;;;13.70;99.90;;;;;;5012552;28;20187;-80
2021/12/31 13:01:46;;;;;;;1.00;0.60;;;13.60;99.90;;;;;;5010035;28;20179;-81
2021/12/31 13:04:13;;;;;;;0.70;0.70;;;13.70;99.90;;;;;;5009269;28;20187;-80
2021/12/31 13:07:02;;;;;;;2.25;1.30;;;13.70;99.90;;;;;;5011195;28;20386;-80
2021/12/31 13:09:32;;;;;;;1.85;0.90;;;13.60;99.90;;;;;;4997347;28;20614;-81
2021/12/31 13:12:02;;;;;;;2.53;0.90;;;13.60;99.90;;;;;;5009727;28;20180;-79
2021/12/31 13:14:36;;;;;;;0.95;0.80;;;13.60;99.90;;;;;;5009558;28;20906;-79
2021/12/31 13:17:02;;;;;;;1.73;0.77;;;13.60;99.90;;;;;;5010993;28;20214;-81
2021/12/31 13:19:31;;;;;;;0.82;0.68;;;13.60;99.90;;;;;;5009680;28;20218;-79
2021/12/31 13:21:59;;;;;;;2.20;0.90;;;13.60;99.90;;;;;;5008384;28;20184;-79
2021/12/31 13:24:26;;;;;;;2.33;0.98;;;13.60;99.90;;;;;;5009944;28;20203;-81
2021/12/31 13:26:57;;;;;;;1.50;0.95;;;13.70;99.90;;;;;;5011445;28;20206;-80
2021/12/31 13:29:40;;;;;;;1.10;0.90;;;13.70;99.90;;;;;;5013927;28;20200;-81
2021/12/31 13:32:09;;;;;;;1.35;0.60;;;13.80;99.90;;;;;;5011289;28;20183;-79
2021/12/31 13:34:39;;;;;;;1.58;0.80;;;13.90;99.90;;;;;;5010344;28;20780;-80
2021/12/31 13:37:05;;;;;;;0.60;0.60;;;13.90;99.90;;;;;;5009619;28;20460;-80
2021/12/31 13:39:43;;;;;;;1.38;0.70;;;13.80;99.90;;;;;;5008413;28;20628;-80
2021/12/31 13:42:12;;;;;;;1.02;0.70;;;13.80;99.90;;;;;;5008996;28;20183;-79
2021/12/31 13:44:40;;;;;;;1.00;0.70;;;13.70;99.90;;;;;;5009335;28;20208;-80